sensor_id;sensor_type;location;lat;lon;timestamp;P1;durP1;ratioP1;P2;durP2;ratioP2
55037;SDS011;40937;53.594;10.034;2023-08-06T00:02:18;1.92;;;1.83;;
55037;SDS011;40937;53.594;10.034;2023-08-06T00:04:47;2.60;;;1.60;;
55037;SDS011;40937;53.594;10.034;2023-08-06T00:07:14;1.60;;;1.50;;
55037;SDS011;40937;53.594;10.034;2023-08-06T00:09:41;1.67;;;1.58;;
55037;SDS011;40937;53.594;10.034;2023-08-06T00:12:09;1.60;;;1.50;;
55037;SDS011;40937;53.594;10.034;2023-08-06T00:14:36;1.23;;;1.13;;
55037;SDS011;40937;53.594;10.034;2023-08-06T00:17:03;1.25;;;1.25;;
55037;SDS011;40937;53.594;10.034;2023-08-06T00:19:31;1.50;;;1.40;;
55037;SDS011;40937;53.594;10.034;2023-08-06T00:21:59;1.83;;;1.73;;
55037;SDS011;40937;53.594;10.034;2023-08-06T00:24:27;3.17;;;1.67;;
55037;SDS011;40937;53.594;10.034;2023-08-06T00:26:55;3.03;;;1.90;;
55037;SDS011;40937;53.594;10.034;2023-08-06T00:29:22;2.22;;;2.03;;
55037;SDS011;40937;53.594;10.034;2023-08-06T00:31:49;2.50;;;2.20;;
55037;SDS011;40937;53.594;10.034;2023-08-06T00:34:16;2.28;;;2.15;;
55037;SDS011;40937;53.594;10.034;2023-08-06T00:36:44;2.10;;;2.00;;
55037;SDS011;40937;53.594;10.034;2023-08-06T00:39:13;3.58;;;2.15;;
55037;SDS011;40937;53.594;10.034;2023-08-06T00:41:40;2.85;;;2.60;;
55037;SDS011;40937;53.594;10.034;2023-08-06T00:44:07;2.38;;;2.17;;
55037;SDS011;40937;53.594;10.034;2023-08-06T00:46:35;2.28;;;2.10;;
55037;SDS011;40937;53.594;10.034;2023-08-06T00:49:02;4.47;;;2.42;;
55037;SDS011;40937;53.594;10.034;2023-08-06T00:51:31;3.00;;;2.25;;
55037;SDS011;40937;53.594;10.034;2023-08-06T00:53:58;3.28;;;2.33;;
55037;SDS011;40937;53.594;10.034;2023-08-06T00:56:27;3.40;;;2.75;;
55037;SDS011;40937;53.594;10.034;2023-08-06T00:58:55;3.20;;;2.90;;
55037;SDS011;40937;53.594;10.034;2023-08-06T01:01:23;2.88;;;2.67;;
55037;SDS011;40937;53.594;10.034;2023-08-06T01:03:50;2.70;;;2.50;;
55037;SDS011;40937;53.594;10.034;2023-08-06T01:06:18;2.92;;;2.72;;
55037;SDS011;40937;53.594;10.034;2023-08-06T01:08:52;4.80;;;3.17;;
55037;SDS011;40937;53.594;10.034;2023-08-06T01:11:26;3.25;;;3.00;;
55037;SDS011;40937;53.594;10.034;2023-08-06T01:14:06;2.53;;;2.33;;
55037;SDS011;40937;53.594;10.034;2023-08-06T01:16:37;4.10;;;3.03;;
55037;SDS011;40937;53.594;10.034;2023-08-06T01:19:08;3.15;;;2.95;;
55037;SDS011;40937;53.594;10.034;2023-08-06T01:21:44;3.33;;;2.97;;
55037;SDS011;40937;53.594;10.034;2023-08-06T01:24:11;3.03;;;2.85;;
55037;SDS011;40937;53.594;10.034;2023-08-06T01:26:42;3.45;;;3.25;;
55037;SDS011;40937;53.594;10.034;2023-08-06T01:29:14;3.20;;;2.90;;
55037;SDS011;40937;53.594;10.034;2023-08-06T01:34:17;3.60;;;3.15;;
55037;SDS011;40937;53.594;10.034;2023-08-06T01:36:50;4.13;;;3.72;;
55037;SDS011;40937;53.594;10.034;2023-08-06T01:39:17;5.05;;;3.35;;
55037;SDS011;40937;53.594;10.034;2023-08-06T01:41:46;3.45;;;3.22;;
55037;SDS011;40937;53.594;10.034;2023-08-06T01:44:13;3.25;;;3.05;;
55037;SDS011;40937;53.594;10.034;2023-08-06T01:46:42;3.22;;;3.03;;
55037;SDS011;40937;53.594;10.034;2023-08-06T01:49:09;4.03;;;3.45;;
55037;SDS011;40937;53.594;10.034;2023-08-06T01:51:36;3.20;;;3.00;;
55037;SDS011;40937;53.594;10.034;2023-08-06T01:54:06;3.38;;;3.10;;
55037;SDS011;40937;53.594;10.034;2023-08-06T01:56:33;3.13;;;2.92;;
55037;SDS011;40937;53.594;10.034;2023-08-06T01:59:01;3.30;;;3.10;;
55037;SDS011;40937;53.594;10.034;2023-08-06T02:01:28;3.22;;;3.00;;
55037;SDS011;40937;53.594;10.034;2023-08-06T02:03:55;4.13;;;3.60;;
55037;SDS011;40937;53.594;10.034;2023-08-06T02:06:23;3.55;;;3.30;;
55037;SDS011;40937;53.594;10.034;2023-08-06T02:08:50;3.67;;;3.38;;
55037;SDS011;40937;53.594;10.034;2023-08-06T02:11:19;5.65;;;3.85;;
55037;SDS011;40937;53.594;10.034;2023-08-06T02:16:18;3.50;;;3.20;;
55037;SDS011;40937;53.594;10.034;2023-08-06T02:18:45;3.00;;;2.80;;
55037;SDS011;40937;53.594;10.034;2023-08-06T02:21:14;3.90;;;3.60;;
55037;SDS011;40937;53.594;10.034;2023-08-06T02:23:42;3.60;;;3.40;;
55037;SDS011;40937;53.594;10.034;2023-08-06T02:26:13;7.80;;;3.20;;
55037;SDS011;40937;53.594;10.034;2023-08-06T02:28:42;5.97;;;2.97;;
55037;SDS011;40937;53.594;10.034;2023-08-06T02:31:09;3.60;;;3.30;;
55037;SDS011;40937;53.594;10.034;2023-08-06T02:33:37;6.63;;;3.65;;
55037;SDS011;40937;53.594;10.034;2023-08-06T02:36:04;4.20;;;3.47;;
55037;SDS011;40937;53.594;10.034;2023-08-06T02:38:32;5.30;;;3.70;;
55037;SDS011;40937;53.594;10.034;2023-08-06T02:40:59;3.42;;;3.20;;
55037;SDS011;40937;53.594;10.034;2023-08-06T02:43:29;3.45;;;3.25;;
55037;SDS011;40937;53.594;10.034;2023-08-06T02:45:58;3.40;;;3.15;;
55037;SDS011;40937;53.594;10.034;2023-08-06T02:48:26;3.63;;;3.33;;
55037;SDS011;40937;53.594;10.034;2023-08-06T02:50:56;4.00;;;3.53;;
55037;SDS011;40937;53.594;10.034;2023-08-06T02:53:24;5.72;;;3.15;;
55037;SDS011;40937;53.594;10.034;2023-08-06T02:55:52;5.88;;;3.53;;
55037;SDS011;40937;53.594;10.034;2023-08-06T02:58:25;3.83;;;3.47;;
55037;SDS011;40937;53.594;10.034;2023-08-06T03:01:08;4.60;;;3.60;;
55037;SDS011;40937;53.594;10.034;2023-08-06T03:03:44;3.60;;;3.40;;
55037;SDS011;40937;53.594;10.034;2023-08-06T03:06:18;3.90;;;3.08;;
55037;SDS011;40937;53.594;10.034;2023-08-06T03:08:49;3.40;;;3.20;;
55037;SDS011;40937;53.594;10.034;2023-08-06T03:11:16;3.53;;;3.22;;
55037;SDS011;40937;53.594;10.034;2023-08-06T03:13:44;4.22;;;2.92;;
55037;SDS011;40937;53.594;10.034;2023-08-06T03:16:12;4.70;;;3.28;;
55037;SDS011;40937;53.594;10.034;2023-08-06T03:18:40;3.17;;;2.97;;
55037;SDS011;40937;53.594;10.034;2023-08-06T03:21:09;3.90;;;2.97;;
55037;SDS011;40937;53.594;10.034;2023-08-06T03:23:37;3.53;;;3.20;;
55037;SDS011;40937;53.594;10.034;2023-08-06T03:26:06;4.97;;;3.60;;
55037;SDS011;40937;53.594;10.034;2023-08-06T03:28:33;4.15;;;3.30;;
55037;SDS011;40937;53.594;10.034;2023-08-06T03:31:01;3.60;;;3.30;;
55037;SDS011;40937;53.594;10.034;2023-08-06T03:33:43;4.82;;;3.80;;
55037;SDS011;40937;53.594;10.034;2023-08-06T03:36:16;4.15;;;3.47;;
55037;SDS011;40937;53.594;10.034;2023-08-06T03:38:43;3.75;;;3.45;;
55037;SDS011;40937;53.594;10.034;2023-08-06T03:41:13;4.53;;;3.67;;
55037;SDS011;40937;53.594;10.034;2023-08-06T03:43:41;4.28;;;3.60;;
55037;SDS011;40937;53.594;10.034;2023-08-06T03:46:13;5.55;;;3.97;;
55037;SDS011;40937;53.594;10.034;2023-08-06T03:48:41;4.05;;;3.58;;
55037;SDS011;40937;53.594;10.034;2023-08-06T03:51:09;5.72;;;3.83;;
55037;SDS011;40937;53.594;10.034;2023-08-06T03:53:38;5.15;;;3.75;;
55037;SDS011;40937;53.594;10.034;2023-08-06T03:56:05;6.40;;;4.03;;
55037;SDS011;40937;53.594;10.034;2023-08-06T03:58:34;5.03;;;3.58;;
55037;SDS011;40937;53.594;10.034;2023-08-06T04:01:02;4.90;;;3.47;;
55037;SDS011;40937;53.594;10.034;2023-08-06T04:03:39;6.57;;;4.00;;
55037;SDS011;40937;53.594;10.034;2023-08-06T04:06:07;3.65;;;3.35;;
55037;SDS011;40937;53.594;10.034;2023-08-06T04:08:37;3.65;;;3.45;;
55037;SDS011;40937;53.594;10.034;2023-08-06T04:11:04;3.83;;;3.40;;
55037;SDS011;40937;53.594;10.034;2023-08-06T04:13:32;6.15;;;4.03;;
55037;SDS011;40937;53.594;10.034;2023-08-06T04:16:03;5.60;;;3.65;;
55037;SDS011;40937;53.594;10.034;2023-08-06T04:18:32;3.97;;;3.60;;
55037;SDS011;40937;53.594;10.034;2023-08-06T04:21:01;5.70;;;3.42;;
55037;SDS011;40937;53.594;10.034;2023-08-06T04:23:28;4.00;;;3.30;;
55037;SDS011;40937;53.594;10.034;2023-08-06T04:26:01;5.45;;;3.80;;
55037;SDS011;40937;53.594;10.034;2023-08-06T04:28:32;3.85;;;3.42;;
55037;SDS011;40937;53.594;10.034;2023-08-06T04:30:59;6.25;;;3.50;;
55037;SDS011;40937;53.594;10.034;2023-08-06T04:33:29;5.90;;;3.90;;
55037;SDS011;40937;53.594;10.034;2023-08-06T04:35:59;5.18;;;3.85;;
55037;SDS011;40937;53.594;10.034;2023-08-06T04:38:27;6.32;;;3.40;;
55037;SDS011;40937;53.594;10.034;2023-08-06T04:40:55;3.78;;;3.42;;
55037;SDS011;40937;53.594;10.034;2023-08-06T04:43:25;8.25;;;3.60;;
55037;SDS011;40937;53.594;10.034;2023-08-06T04:45:53;5.22;;;3.65;;
55037;SDS011;40937;53.594;10.034;2023-08-06T04:48:21;8.23;;;3.20;;
55037;SDS011;40937;53.594;10.034;2023-08-06T04:50:49;4.30;;;3.70;;
55037;SDS011;40937;53.594;10.034;2023-08-06T04:53:17;5.53;;;3.92;;
55037;SDS011;40937;53.594;10.034;2023-08-06T04:55:44;4.47;;;3.97;;
55037;SDS011;40937;53.594;10.034;2023-08-06T04:58:12;5.30;;;4.07;;
55037;SDS011;40937;53.594;10.034;2023-08-06T05:00:41;6.75;;;4.13;;
55037;SDS011;40937;53.594;10.034;2023-08-06T05:03:09;6.78;;;4.28;;
55037;SDS011;40937;53.594;10.034;2023-08-06T05:05:36;3.83;;;3.50;;
55037;SDS011;40937;53.594;10.034;2023-08-06T05:08:03;8.55;;;4.32;;
55037;SDS011;40937;53.594;10.034;2023-08-06T05:10:30;6.25;;;3.70;;
55037;SDS011;40937;53.594;10.034;2023-08-06T05:12:58;5.63;;;4.82;;
55037;SDS011;40937;53.594;10.034;2023-08-06T05:15:26;8.77;;;3.50;;
55037;SDS011;40937;53.594;10.034;2023-08-06T05:17:55;7.72;;;4.20;;
55037;SDS011;40937;53.594;10.034;2023-08-06T05:20:22;4.63;;;4.10;;
55037;SDS011;40937;53.594;10.034;2023-08-06T05:22:49;6.07;;;4.35;;
55037;SDS011;40937;53.594;10.034;2023-08-06T05:25:17;9.05;;;4.20;;
55037;SDS011;40937;53.594;10.034;2023-08-06T05:27:44;5.97;;;4.05;;
55037;SDS011;40937;53.594;10.034;2023-08-06T05:30:11;5.72;;;4.03;;
55037;SDS011;40937;53.594;10.034;2023-08-06T05:32:39;5.28;;;4.75;;
55037;SDS011;40937;53.594;10.034;2023-08-06T05:35:08;6.28;;;4.30;;
55037;SDS011;40937;53.594;10.034;2023-08-06T05:37:35;5.30;;;4.30;;
55037;SDS011;40937;53.594;10.034;2023-08-06T05:40:03;10.63;;;4.28;;
55037;SDS011;40937;53.594;10.034;2023-08-06T05:42:30;8.20;;;3.70;;
55037;SDS011;40937;53.594;10.034;2023-08-06T05:44:58;5.25;;;4.20;;
55037;SDS011;40937;53.594;10.034;2023-08-06T05:47:25;7.50;;;4.00;;
55037;SDS011;40937;53.594;10.034;2023-08-06T05:49:52;8.70;;;4.82;;
55037;SDS011;40937;53.594;10.034;2023-08-06T05:52:21;6.43;;;4.18;;
55037;SDS011;40937;53.594;10.034;2023-08-06T05:54:48;5.55;;;4.32;;
55037;SDS011;40937;53.594;10.034;2023-08-06T05:57:16;7.38;;;5.32;;
55037;SDS011;40937;53.594;10.034;2023-08-06T05:59:43;7.22;;;4.85;;
55037;SDS011;40937;53.594;10.034;2023-08-06T06:02:11;8.23;;;4.57;;
55037;SDS011;40937;53.594;10.034;2023-08-06T06:04:40;7.93;;;4.82;;
55037;SDS011;40937;53.594;10.034;2023-08-06T06:07:07;7.25;;;4.38;;
55037;SDS011;40937;53.594;10.034;2023-08-06T06:09:36;5.40;;;4.80;;
55037;SDS011;40937;53.594;10.034;2023-08-06T06:12:05;6.75;;;5.15;;
55037;SDS011;40937;53.594;10.034;2023-08-06T06:14:33;9.13;;;4.88;;
55037;SDS011;40937;53.594;10.034;2023-08-06T06:17:00;8.05;;;5.25;;
55037;SDS011;40937;53.594;10.034;2023-08-06T06:19:28;5.88;;;4.82;;
55037;SDS011;40937;53.594;10.034;2023-08-06T06:21:55;5.15;;;4.65;;
55037;SDS011;40937;53.594;10.034;2023-08-06T06:24:23;5.50;;;4.80;;
55037;SDS011;40937;53.594;10.034;2023-08-06T06:26:52;5.85;;;4.70;;
55037;SDS011;40937;53.594;10.034;2023-08-06T06:29:19;6.13;;;4.78;;
55037;SDS011;40937;53.594;10.034;2023-08-06T06:31:47;10.10;;;4.82;;
55037;SDS011;40937;53.594;10.034;2023-08-06T06:34:14;6.18;;;4.60;;
55037;SDS011;40937;53.594;10.034;2023-08-06T06:36:41;15.23;;;6.15;;
55037;SDS011;40937;53.594;10.034;2023-08-06T06:39:09;7.07;;;4.75;;
55037;SDS011;40937;53.594;10.034;2023-08-06T06:41:36;4.97;;;4.45;;
55037;SDS011;40937;53.594;10.034;2023-08-06T06:44:12;6.68;;;4.93;;
55037;SDS011;40937;53.594;10.034;2023-08-06T06:46:40;5.38;;;4.85;;
55037;SDS011;40937;53.594;10.034;2023-08-06T06:49:07;6.47;;;4.90;;
55037;SDS011;40937;53.594;10.034;2023-08-06T06:51:35;5.22;;;4.78;;
55037;SDS011;40937;53.594;10.034;2023-08-06T06:54:02;9.27;;;4.70;;
55037;SDS011;40937;53.594;10.034;2023-08-06T06:56:29;7.13;;;5.15;;
55037;SDS011;40937;53.594;10.034;2023-08-06T06:58:57;6.03;;;5.43;;
55037;SDS011;40937;53.594;10.034;2023-08-06T07:01:25;13.50;;;5.80;;
55037;SDS011;40937;53.594;10.034;2023-08-06T07:03:53;8.35;;;5.50;;
55037;SDS011;40937;53.594;10.034;2023-08-06T07:06:20;11.30;;;5.28;;
55037;SDS011;40937;53.594;10.034;2023-08-06T07:08:47;5.43;;;4.93;;
55037;SDS011;40937;53.594;10.034;2023-08-06T07:11:15;8.15;;;5.72;;
55037;SDS011;40937;53.594;10.034;2023-08-06T07:13:42;15.88;;;6.03;;
55037;SDS011;40937;53.594;10.034;2023-08-06T07:16:09;6.13;;;5.43;;
55037;SDS011;40937;53.594;10.034;2023-08-06T07:18:38;6.70;;;5.50;;
55037;SDS011;40937;53.594;10.034;2023-08-06T07:21:05;5.97;;;5.40;;
55037;SDS011;40937;53.594;10.034;2023-08-06T07:23:32;9.30;;;6.00;;
55037;SDS011;40937;53.594;10.034;2023-08-06T07:26:00;8.75;;;5.05;;
55037;SDS011;40937;53.594;10.034;2023-08-06T07:28:27;8.25;;;5.38;;
55037;SDS011;40937;53.594;10.034;2023-08-06T07:30:54;5.65;;;5.13;;
55037;SDS011;40937;53.594;10.034;2023-08-06T07:33:22;7.97;;;5.65;;
55037;SDS011;40937;53.594;10.034;2023-08-06T07:35:50;8.75;;;5.90;;
55037;SDS011;40937;53.594;10.034;2023-08-06T07:38:18;7.15;;;6.00;;
55037;SDS011;40937;53.594;10.034;2023-08-06T07:40:45;9.40;;;5.80;;
55037;SDS011;40937;53.594;10.034;2023-08-06T07:43:12;9.48;;;5.82;;
55037;SDS011;40937;53.594;10.034;2023-08-06T07:45:40;9.23;;;5.82;;
55037;SDS011;40937;53.594;10.034;2023-08-06T07:48:07;6.85;;;5.53;;
55037;SDS011;40937;53.594;10.034;2023-08-06T07:50:34;6.07;;;5.38;;
55037;SDS011;40937;53.594;10.034;2023-08-06T07:53:03;6.65;;;5.35;;
55037;SDS011;40937;53.594;10.034;2023-08-06T07:55:30;9.10;;;5.65;;
55037;SDS011;40937;53.594;10.034;2023-08-06T07:57:58;8.70;;;5.35;;
55037;SDS011;40937;53.594;10.034;2023-08-06T08:00:25;10.82;;;5.47;;
55037;SDS011;40937;53.594;10.034;2023-08-06T08:02:52;7.20;;;5.30;;
55037;SDS011;40937;53.594;10.034;2023-08-06T08:05:20;5.60;;;5.10;;
55037;SDS011;40937;53.594;10.034;2023-08-06T08:07:47;7.68;;;5.70;;
55037;SDS011;40937;53.594;10.034;2023-08-06T08:10:16;9.70;;;5.20;;
55037;SDS011;40937;53.594;10.034;2023-08-06T08:12:43;10.00;;;5.93;;
55037;SDS011;40937;53.594;10.034;2023-08-06T08:15:13;12.05;;;5.60;;
55037;SDS011;40937;53.594;10.034;2023-08-06T08:17:40;7.00;;;5.28;;
55037;SDS011;40937;53.594;10.034;2023-08-06T08:20:08;7.53;;;5.82;;
55037;SDS011;40937;53.594;10.034;2023-08-06T08:22:35;5.97;;;5.50;;
55037;SDS011;40937;53.594;10.034;2023-08-06T08:25:03;7.88;;;5.32;;
55037;SDS011;40937;53.594;10.034;2023-08-06T08:27:32;5.97;;;5.55;;
55037;SDS011;40937;53.594;10.034;2023-08-06T08:29:59;7.93;;;4.78;;
55037;SDS011;40937;53.594;10.034;2023-08-06T08:32:26;5.90;;;5.25;;
55037;SDS011;40937;53.594;10.034;2023-08-06T08:34:54;10.02;;;6.10;;
55037;SDS011;40937;53.594;10.034;2023-08-06T08:37:21;6.10;;;4.70;;
55037;SDS011;40937;53.594;10.034;2023-08-06T08:39:50;7.55;;;5.50;;
55037;SDS011;40937;53.594;10.034;2023-08-06T08:42:18;5.88;;;5.28;;
55037;SDS011;40937;53.594;10.034;2023-08-06T08:44:47;6.10;;;5.50;;
55037;SDS011;40937;53.594;10.034;2023-08-06T08:47:14;8.55;;;4.97;;
55037;SDS011;40937;53.594;10.034;2023-08-06T08:49:42;5.72;;;5.22;;
55037;SDS011;40937;53.594;10.034;2023-08-06T08:52:11;7.47;;;5.60;;
55037;SDS011;40937;53.594;10.034;2023-08-06T08:54:41;6.47;;;5.10;;
55037;SDS011;40937;53.594;10.034;2023-08-06T08:57:10;9.73;;;6.13;;
55037;SDS011;40937;53.594;10.034;2023-08-06T08:59:37;7.22;;;5.82;;
55037;SDS011;40937;53.594;10.034;2023-08-06T09:02:06;9.38;;;6.53;;
55037;SDS011;40937;53.594;10.034;2023-08-06T09:04:37;6.85;;;4.80;;
55037;SDS011;40937;53.594;10.034;2023-08-06T09:07:04;6.63;;;5.93;;
55037;SDS011;40937;53.594;10.034;2023-08-06T09:09:34;11.52;;;5.53;;
55037;SDS011;40937;53.594;10.034;2023-08-06T09:12:05;12.98;;;5.78;;
55037;SDS011;40937;53.594;10.034;2023-08-06T09:14:42;7.05;;;6.07;;
55037;SDS011;40937;53.594;10.034;2023-08-06T09:17:11;7.18;;;5.50;;
55037;SDS011;40937;53.594;10.034;2023-08-06T09:19:41;6.53;;;5.45;;
55037;SDS011;40937;53.594;10.034;2023-08-06T09:22:12;10.38;;;5.55;;
55037;SDS011;40937;53.594;10.034;2023-08-06T09:24:40;7.05;;;5.03;;
55037;SDS011;40937;53.594;10.034;2023-08-06T09:27:10;11.45;;;5.70;;
55037;SDS011;40937;53.594;10.034;2023-08-06T09:29:40;12.27;;;5.88;;
55037;SDS011;40937;53.594;10.034;2023-08-06T09:32:08;5.72;;;5.15;;
55037;SDS011;40937;53.594;10.034;2023-08-06T09:34:38;6.70;;;4.90;;
55037;SDS011;40937;53.594;10.034;2023-08-06T09:37:07;12.30;;;6.70;;
55037;SDS011;40937;53.594;10.034;2023-08-06T09:39:39;8.35;;;5.75;;
55037;SDS011;40937;53.594;10.034;2023-08-06T09:42:07;6.78;;;6.05;;
55037;SDS011;40937;53.594;10.034;2023-08-06T09:44:34;10.38;;;6.00;;
55037;SDS011;40937;53.594;10.034;2023-08-06T09:47:02;8.75;;;6.05;;
55037;SDS011;40937;53.594;10.034;2023-08-06T09:49:41;9.60;;;5.65;;
55037;SDS011;40937;53.594;10.034;2023-08-06T09:52:11;10.98;;;5.57;;
55037;SDS011;40937;53.594;10.034;2023-08-06T09:54:39;7.22;;;5.65;;
55037;SDS011;40937;53.594;10.034;2023-08-06T09:57:07;6.82;;;5.18;;
55037;SDS011;40937;53.594;10.034;2023-08-06T09:59:35;6.00;;;5.18;;
55037;SDS011;40937;53.594;10.034;2023-08-06T10:02:07;6.78;;;5.40;;
55037;SDS011;40937;53.594;10.034;2023-08-06T10:04:40;7.10;;;5.47;;
55037;SDS011;40937;53.594;10.034;2023-08-06T10:07:11;7.35;;;5.40;;
55037;SDS011;40937;53.594;10.034;2023-08-06T10:09:38;11.18;;;5.43;;
55037;SDS011;40937;53.594;10.034;2023-08-06T10:12:06;7.78;;;5.53;;
55037;SDS011;40937;53.594;10.034;2023-08-06T10:14:34;6.97;;;5.35;;
55037;SDS011;40937;53.594;10.034;2023-08-06T10:17:03;7.72;;;5.65;;
55037;SDS011;40937;53.594;10.034;2023-08-06T10:19:31;8.32;;;5.32;;
55037;SDS011;40937;53.594;10.034;2023-08-06T10:22:10;6.20;;;5.60;;
55037;SDS011;40937;53.594;10.034;2023-08-06T10:24:51;6.40;;;5.60;;
55037;SDS011;40937;53.594;10.034;2023-08-06T10:27:19;9.63;;;5.82;;
55037;SDS011;40937;53.594;10.034;2023-08-06T10:29:48;10.23;;;6.43;;
55037;SDS011;40937;53.594;10.034;2023-08-06T10:32:16;6.90;;;6.10;;
55037;SDS011;40937;53.594;10.034;2023-08-06T10:34:54;8.20;;;6.22;;
55037;SDS011;40937;53.594;10.034;2023-08-06T10:37:25;7.45;;;5.40;;
55037;SDS011;40937;53.594;10.034;2023-08-06T10:40:02;6.68;;;5.75;;
55037;SDS011;40937;53.594;10.034;2023-08-06T10:42:30;7.75;;;6.25;;
55037;SDS011;40937;53.594;10.034;2023-08-06T10:45:16;8.63;;;6.43;;
55037;SDS011;40937;53.594;10.034;2023-08-06T10:47:45;6.45;;;5.82;;
55037;SDS011;40937;53.594;10.034;2023-08-06T10:50:13;6.72;;;6.13;;
55037;SDS011;40937;53.594;10.034;2023-08-06T10:52:44;7.45;;;6.72;;
55037;SDS011;40937;53.594;10.034;2023-08-06T10:55:12;7.13;;;6.43;;
55037;SDS011;40937;53.594;10.034;2023-08-06T10:57:40;7.53;;;6.15;;
55037;SDS011;40937;53.594;10.034;2023-08-06T11:00:07;8.38;;;6.07;;
55037;SDS011;40937;53.594;10.034;2023-08-06T11:02:38;9.23;;;6.38;;
55037;SDS011;40937;53.594;10.034;2023-08-06T11:05:06;8.23;;;6.60;;
55037;SDS011;40937;53.594;10.034;2023-08-06T11:07:34;6.53;;;5.47;;
55037;SDS011;40937;53.594;10.034;2023-08-06T11:10:04;6.38;;;5.63;;
55037;SDS011;40937;53.594;10.034;2023-08-06T11:12:32;6.40;;;5.88;;
55037;SDS011;40937;53.594;10.034;2023-08-06T11:15:00;5.88;;;5.22;;
55037;SDS011;40937;53.594;10.034;2023-08-06T11:17:28;5.82;;;5.22;;
55037;SDS011;40937;53.594;10.034;2023-08-06T11:19:58;9.00;;;5.68;;
55037;SDS011;40937;53.594;10.034;2023-08-06T11:22:26;9.95;;;7.40;;
55037;SDS011;40937;53.594;10.034;2023-08-06T11:24:54;6.47;;;5.70;;
55037;SDS011;40937;53.594;10.034;2023-08-06T11:27:25;5.50;;;4.93;;
55037;SDS011;40937;53.594;10.034;2023-08-06T11:29:53;5.18;;;4.78;;
55037;SDS011;40937;53.594;10.034;2023-08-06T11:32:20;6.43;;;5.07;;
55037;SDS011;40937;53.594;10.034;2023-08-06T11:34:48;6.03;;;5.30;;
55037;SDS011;40937;53.594;10.034;2023-08-06T11:37:15;6.28;;;5.68;;
55037;SDS011;40937;53.594;10.034;2023-08-06T11:39:44;5.65;;;5.18;;
55037;SDS011;40937;53.594;10.034;2023-08-06T11:42:13;5.50;;;5.03;;
55037;SDS011;40937;53.594;10.034;2023-08-06T11:44:42;6.05;;;4.88;;
55037;SDS011;40937;53.594;10.034;2023-08-06T11:47:12;6.78;;;5.07;;
55037;SDS011;40937;53.594;10.034;2023-08-06T11:49:41;6.25;;;5.68;;
55037;SDS011;40937;53.594;10.034;2023-08-06T11:52:14;5.43;;;5.03;;
55037;SDS011;40937;53.594;10.034;2023-08-06T11:54:45;5.78;;;5.28;;
55037;SDS011;40937;53.594;10.034;2023-08-06T11:57:26;5.45;;;4.90;;
55037;SDS011;40937;53.594;10.034;2023-08-06T12:00:02;6.25;;;5.50;;
55037;SDS011;40937;53.594;10.034;2023-08-06T12:02:38;5.15;;;4.80;;
55037;SDS011;40937;53.594;10.034;2023-08-06T12:05:10;8.45;;;7.53;;
55037;SDS011;40937;53.594;10.034;2023-08-06T12:07:38;5.97;;;5.20;;
55037;SDS011;40937;53.594;10.034;2023-08-06T12:10:07;5.55;;;5.15;;
55037;SDS011;40937;53.594;10.034;2023-08-06T12:12:34;5.60;;;5.20;;
55037;SDS011;40937;53.594;10.034;2023-08-06T12:15:05;6.03;;;5.45;;
55037;SDS011;40937;53.594;10.034;2023-08-06T12:17:33;5.60;;;5.03;;
55037;SDS011;40937;53.594;10.034;2023-08-06T12:20:01;5.10;;;4.65;;
55037;SDS011;40937;53.594;10.034;2023-08-06T12:22:30;7.45;;;5.18;;
55037;SDS011;40937;53.594;10.034;2023-08-06T12:25:00;5.78;;;4.80;;
55037;SDS011;40937;53.594;10.034;2023-08-06T12:27:29;5.22;;;4.63;;
55037;SDS011;40937;53.594;10.034;2023-08-06T12:29:56;5.65;;;5.10;;
55037;SDS011;40937;53.594;10.034;2023-08-06T12:32:25;5.82;;;5.32;;
55037;SDS011;40937;53.594;10.034;2023-08-06T12:34:52;5.70;;;5.28;;
55037;SDS011;40937;53.594;10.034;2023-08-06T12:37:20;4.97;;;4.65;;
55037;SDS011;40937;53.594;10.034;2023-08-06T12:39:48;11.85;;;10.77;;
55037;SDS011;40937;53.594;10.034;2023-08-06T12:42:16;7.30;;;6.10;;
55037;SDS011;40937;53.594;10.034;2023-08-06T12:44:43;9.77;;;5.65;;
55037;SDS011;40937;53.594;10.034;2023-08-06T12:47:10;6.57;;;5.35;;
55037;SDS011;40937;53.594;10.034;2023-08-06T12:49:39;5.85;;;4.97;;
55037;SDS011;40937;53.594;10.034;2023-08-06T12:52:06;6.07;;;5.03;;
55037;SDS011;40937;53.594;10.034;2023-08-06T12:54:35;6.03;;;4.78;;
55037;SDS011;40937;53.594;10.034;2023-08-06T12:57:03;9.93;;;5.43;;
55037;SDS011;40937;53.594;10.034;2023-08-06T12:59:31;5.97;;;5.47;;
55037;SDS011;40937;53.594;10.034;2023-08-06T13:02:02;5.75;;;5.00;;
55037;SDS011;40937;53.594;10.034;2023-08-06T13:04:29;6.93;;;5.18;;
55037;SDS011;40937;53.594;10.034;2023-08-06T13:06:58;9.68;;;5.05;;
55037;SDS011;40937;53.594;10.034;2023-08-06T13:09:25;6.82;;;5.00;;
55037;SDS011;40937;53.594;10.034;2023-08-06T13:11:53;11.98;;;5.07;;
55037;SDS011;40937;53.594;10.034;2023-08-06T13:14:20;5.30;;;4.80;;
55037;SDS011;40937;53.594;10.034;2023-08-06T13:16:48;5.70;;;5.05;;
55037;SDS011;40937;53.594;10.034;2023-08-06T13:19:15;6.63;;;4.93;;
55037;SDS011;40937;53.594;10.034;2023-08-06T13:21:59;7.32;;;5.05;;
55037;SDS011;40937;53.594;10.034;2023-08-06T13:24:29;9.88;;;5.93;;
55037;SDS011;40937;53.594;10.034;2023-08-06T13:26:56;5.05;;;4.65;;
55037;SDS011;40937;53.594;10.034;2023-08-06T13:29:24;5.50;;;4.45;;
55037;SDS011;40937;53.594;10.034;2023-08-06T13:31:52;8.45;;;4.78;;
55037;SDS011;40937;53.594;10.034;2023-08-06T13:34:19;5.15;;;4.70;;
55037;SDS011;40937;53.594;10.034;2023-08-06T13:36:47;5.95;;;4.60;;
55037;SDS011;40937;53.594;10.034;2023-08-06T13:39:16;8.15;;;4.40;;
55037;SDS011;40937;53.594;10.034;2023-08-06T13:41:45;9.75;;;4.05;;
55037;SDS011;40937;53.594;10.034;2023-08-06T13:44:12;4.55;;;4.13;;
55037;SDS011;40937;53.594;10.034;2023-08-06T13:46:41;6.10;;;4.05;;
55037;SDS011;40937;53.594;10.034;2023-08-06T13:49:09;6.03;;;4.22;;
55037;SDS011;40937;53.594;10.034;2023-08-06T13:51:36;8.02;;;4.38;;
55037;SDS011;40937;53.594;10.034;2023-08-06T13:54:04;4.63;;;3.67;;
55037;SDS011;40937;53.594;10.034;2023-08-06T13:56:34;5.63;;;3.17;;
55037;SDS011;40937;53.594;10.034;2023-08-06T13:59:03;2.95;;;2.75;;
55037;SDS011;40937;53.594;10.034;2023-08-06T14:01:31;4.18;;;2.90;;
55037;SDS011;40937;53.594;10.034;2023-08-06T14:03:58;3.90;;;2.88;;
55037;SDS011;40937;53.594;10.034;2023-08-06T14:06:26;2.75;;;2.55;;
55037;SDS011;40937;53.594;10.034;2023-08-06T14:08:53;6.60;;;2.80;;
55037;SDS011;40937;53.594;10.034;2023-08-06T14:11:20;9.30;;;3.13;;
55037;SDS011;40937;53.594;10.034;2023-08-06T14:13:49;5.70;;;3.20;;
55037;SDS011;40937;53.594;10.034;2023-08-06T14:16:17;5.82;;;3.05;;
55037;SDS011;40937;53.594;10.034;2023-08-06T14:18:44;3.60;;;3.08;;
55037;SDS011;40937;53.594;10.034;2023-08-06T14:21:12;3.17;;;2.50;;
55037;SDS011;40937;53.594;10.034;2023-08-06T14:23:40;3.33;;;2.20;;
55037;SDS011;40937;53.594;10.034;2023-08-06T14:26:08;3.50;;;2.50;;
55037;SDS011;40937;53.594;10.034;2023-08-06T14:28:36;2.30;;;2.10;;
55037;SDS011;40937;53.594;10.034;2023-08-06T14:31:05;4.10;;;2.00;;
55037;SDS011;40937;53.594;10.034;2023-08-06T14:33:32;2.60;;;1.98;;
55037;SDS011;40937;53.594;10.034;2023-08-06T14:35:59;2.55;;;2.25;;
55037;SDS011;40937;53.594;10.034;2023-08-06T14:38:27;4.53;;;2.20;;
55037;SDS011;40937;53.594;10.034;2023-08-06T14:40:54;3.80;;;2.00;;
55037;SDS011;40937;53.594;10.034;2023-08-06T14:43:22;2.58;;;1.98;;
55037;SDS011;40937;53.594;10.034;2023-08-06T14:45:49;3.25;;;2.10;;
55037;SDS011;40937;53.594;10.034;2023-08-06T14:48:18;3.88;;;2.70;;